createdAt,value
2022-12-05T00:00:54.837Z,32.28
2022-12-05T00:03:21.825Z,25.30
2022-12-05T00:05:49.354Z,25.40
2022-12-05T00:08:15.979Z,24.52
2022-12-05T00:10:42.729Z,29.23
2022-12-05T00:13:10.017Z,25.75
2022-12-05T00:15:38.584Z,28.45
2022-12-05T00:18:05.795Z,25.83
2022-12-05T00:20:32.483Z,21.98
2022-12-05T00:22:59.047Z,26.33
2022-12-05T00:25:25.631Z,25.05
2022-12-05T00:27:52.162Z,32.35
2022-12-05T00:30:18.890Z,26.30
2022-12-05T00:32:45.486Z,24.95
2022-12-05T00:35:11.999Z,27.95
2022-12-05T00:37:38.639Z,30.05
2022-12-05T00:40:05.995Z,29.13
2022-12-05T00:42:32.596Z,25.63
2022-12-05T00:44:59.162Z,27.60
2022-12-05T00:47:25.716Z,25.23
2022-12-05T00:49:52.263Z,24.75
2022-12-05T00:52:18.841Z,27.50
2022-12-05T00:54:45.362Z,27.88
2022-12-05T00:57:12.011Z,33.05
2022-12-05T00:59:40.042Z,26.35
2022-12-05T01:02:06.562Z,23.15
2022-12-05T01:04:33.090Z,26.77
2022-12-05T01:06:59.717Z,24.58
2022-12-05T01:09:27.159Z,27.20
2022-12-05T01:11:54.143Z,22.08
2022-12-05T01:14:23.513Z,26.85
2022-12-05T01:16:51.809Z,26.27
2022-12-05T01:19:27.908Z,25.23
2022-12-05T01:21:54.680Z,28.80
2022-12-05T01:24:22.486Z,25.58
2022-12-05T01:26:49.509Z,24.52
2022-12-05T01:29:19.367Z,23.63
2022-12-05T01:31:46.554Z,25.92
2022-12-05T01:34:15.941Z,22.10
2022-12-05T01:36:42.635Z,25.05
2022-12-05T01:39:10.921Z,24.25
2022-12-05T01:41:41.771Z,28.42
2022-12-05T01:44:28.241Z,25.70
2022-12-05T01:46:56.091Z,24.98
2022-12-05T01:49:26.927Z,23.50
2022-12-05T01:51:57.879Z,27.90
2022-12-05T01:54:25.409Z,26.73
2022-12-05T01:57:05.522Z,25.67
2022-12-05T01:59:36.355Z,26.15
2022-12-05T02:02:04.121Z,28.17
2022-12-05T02:04:31.710Z,26.90
2022-12-05T02:06:58.241Z,27.77
2022-12-05T02:09:24.825Z,27.80
2022-12-05T02:11:58.357Z,22.77
2022-12-05T02:14:52.110Z,24.85
2022-12-05T02:17:52.798Z,22.38
2022-12-05T02:20:45.780Z,23.98
2022-12-05T02:23:53.270Z,18.88
2022-12-05T02:26:37.220Z,24.10
2022-12-05T02:29:15.378Z,21.65
2022-12-05T02:31:48.901Z,22.88
2022-12-05T02:34:57.843Z,27.85
2022-12-05T02:37:33.046Z,24.73
2022-12-05T02:40:13.993Z,29.48
2022-12-05T02:42:40.465Z,27.75
2022-12-05T02:45:10.576Z,23.73
2022-12-05T02:47:48.754Z,25.98
2022-12-05T02:50:19.734Z,26.25
2022-12-05T02:52:49.676Z,25.43
2022-12-05T02:55:19.034Z,23.77
2022-12-05T02:57:50.643Z,26.83
2022-12-05T03:00:17.519Z,25.63
2022-12-05T03:02:44.131Z,25.00
2022-12-05T03:05:31.712Z,30.75
2022-12-05T03:08:04.066Z,30.60
2022-12-05T03:10:33.482Z,27.38
2022-12-05T03:13:07.298Z,32.55
2022-12-05T03:15:41.881Z,32.22
2022-12-05T03:18:15.965Z,34.35
2022-12-05T03:20:49.355Z,33.28
2022-12-05T03:23:24.109Z,31.30
2022-12-05T03:26:18.367Z,29.52
2022-12-05T03:29:03.813Z,23.85
2022-12-05T03:31:45.818Z,29.30
2022-12-05T03:34:22.863Z,31.23
2022-12-05T03:36:52.727Z,42.35
2022-12-05T03:39:32.532Z,46.30
2022-12-05T03:42:08.106Z,33.50
2022-12-05T03:44:58.280Z,40.90
2022-12-05T03:47:38.583Z,35.28
2022-12-05T03:50:19.649Z,32.38
2022-12-05T03:53:18.679Z,30.40
2022-12-05T03:55:42.720Z,35.38
2022-12-05T03:58:15.615Z,41.15
2022-12-05T04:00:45.845Z,33.78
2022-12-05T04:03:19.523Z,40.78
2022-12-05T04:05:59.720Z,34.65
2022-12-05T04:08:33.853Z,37.35
2022-12-05T04:11:09.150Z,38.30
2022-12-05T04:13:40.738Z,47.15
2022-12-05T04:16:30.491Z,57.58
2022-12-05T04:19:17.757Z,80.95
2022-12-05T04:21:50.114Z,57.05
2022-12-05T04:24:45.509Z,45.20
2022-12-05T04:27:46.164Z,39.17
2022-12-05T04:30:25.272Z,40.95
2022-12-05T04:32:57.536Z,47.00
2022-12-05T04:35:54.537Z,44.42
2022-12-05T04:38:28.201Z,44.90
2022-12-05T04:40:59.739Z,47.30
2022-12-05T04:43:28.714Z,34.40
2022-12-05T04:45:58.382Z,39.08
2022-12-05T04:48:28.163Z,45.47
2022-12-05T04:50:57.092Z,42.63
2022-12-05T04:53:29.375Z,47.47
2022-12-05T04:55:59.186Z,34.25
2022-12-05T04:58:27.896Z,42.90
2022-12-05T05:01:10.717Z,38.45
2022-12-05T05:03:50.298Z,37.25
2022-12-05T05:06:17.373Z,40.83
2022-12-05T05:08:55.803Z,38.42
2022-12-05T05:11:42.639Z,38.60
2022-12-05T05:14:09.205Z,48.67
2022-12-05T05:16:39.116Z,42.55
2022-12-05T05:19:07.493Z,38.10
2022-12-05T05:21:37.144Z,37.15
2022-12-05T05:24:05.011Z,42.17
2022-12-05T05:26:35.279Z,40.78
2022-12-05T05:29:02.481Z,45.28
2022-12-05T05:31:29.101Z,37.00
2022-12-05T05:33:56.913Z,43.33
2022-12-05T05:36:25.771Z,38.03
2022-12-05T05:38:55.027Z,38.20
2022-12-05T05:41:24.539Z,39.50
2022-12-05T05:43:51.996Z,38.25
2022-12-05T05:46:21.059Z,47.88
2022-12-05T05:48:48.437Z,40.22
2022-12-05T05:51:16.509Z,44.28
2022-12-05T05:53:43.757Z,52.13
2022-12-05T05:56:15.971Z,50.78
2022-12-05T05:58:47.674Z,23.35
2022-12-05T06:01:20.470Z,23.88
2022-12-05T06:03:47.213Z,23.55
2022-12-05T06:06:15.036Z,32.05
2022-12-05T06:08:43.175Z,31.10
2022-12-05T06:11:21.634Z,33.35
2022-12-05T06:13:52.213Z,32.42
2022-12-05T06:16:21.172Z,24.85
2022-12-05T06:18:49.811Z,28.60
2022-12-05T06:21:17.219Z,31.00
2022-12-05T06:23:44.339Z,38.00
2022-12-05T06:26:13.377Z,35.63
2022-12-05T06:28:40.132Z,46.75
2022-12-05T06:31:14.861Z,37.75
2022-12-05T06:33:42.068Z,44.90
2022-12-05T06:36:11.526Z,37.63
2022-12-05T06:38:41.971Z,42.67
2022-12-05T06:41:19.836Z,43.37
2022-12-05T06:43:46.931Z,50.17
2022-12-05T06:46:14.676Z,47.13
2022-12-05T06:48:41.211Z,43.83
2022-12-05T06:51:13.592Z,42.92
2022-12-05T06:53:40.534Z,50.95
2022-12-05T06:56:13.919Z,48.85
2022-12-05T06:58:41.520Z,42.55
2022-12-05T07:01:31.505Z,49.85
2022-12-05T07:03:59.245Z,47.95
2022-12-05T07:06:26.468Z,62.85
2022-12-05T07:08:53.195Z,49.03
2022-12-05T07:11:20.104Z,54.22
2022-12-05T07:13:46.925Z,61.50
2022-12-05T07:16:13.677Z,61.28
2022-12-05T07:18:40.366Z,59.20
2022-12-05T07:21:14.155Z,65.30
2022-12-05T07:23:42.815Z,76.95
2022-12-05T07:26:12.236Z,90.22
2022-12-05T07:28:38.829Z,63.75
2022-12-05T07:31:08.093Z,64.72
2022-12-05T07:33:35.096Z,93.88
2022-12-05T07:36:06.796Z,110.68
2022-12-05T07:38:33.694Z,64.13
2022-12-05T07:41:00.216Z,57.47
2022-12-05T07:43:26.783Z,57.70
2022-12-05T07:45:53.360Z,69.40
2022-12-05T07:48:19.949Z,54.22
2022-12-05T07:50:46.545Z,63.33
2022-12-05T07:53:13.089Z,58.70
2022-12-05T07:55:39.640Z,49.88
2022-12-05T07:58:06.516Z,58.05
2022-12-05T08:00:33.220Z,79.38
2022-12-05T08:03:02.689Z,58.28
2022-12-05T08:05:29.417Z,58.05
2022-12-05T08:07:56.106Z,66.75
2022-12-05T08:10:22.797Z,49.40
2022-12-05T08:12:49.327Z,54.40
2022-12-05T08:15:15.881Z,52.67
2022-12-05T08:17:42.526Z,51.88
2022-12-05T08:20:09.600Z,43.97
2022-12-05T08:22:36.206Z,43.47
2022-12-05T08:25:02.772Z,51.35
2022-12-05T08:27:29.482Z,47.60
2022-12-05T08:29:56.328Z,50.17
2022-12-05T08:32:23.151Z,45.65
2022-12-05T08:34:49.744Z,62.03
2022-12-05T08:37:16.255Z,48.58
2022-12-05T08:39:42.749Z,56.20
2022-12-05T08:42:09.311Z,42.67
2022-12-05T08:44:35.950Z,52.85
2022-12-05T08:47:02.614Z,45.03
2022-12-05T08:49:29.143Z,58.55
2022-12-05T08:51:55.689Z,47.42
2022-12-05T08:54:22.284Z,50.05
2022-12-05T08:56:51.683Z,55.35
2022-12-05T08:59:18.835Z,47.15
2022-12-05T09:01:45.678Z,49.58
2022-12-05T09:04:13.131Z,47.45
2022-12-05T09:06:40.042Z,46.63
2022-12-05T09:09:11.660Z,47.67
2022-12-05T09:11:46.120Z,41.47
2022-12-05T09:14:13.367Z,44.75
2022-12-05T09:16:40.018Z,48.83
2022-12-05T09:19:18.872Z,46.83
2022-12-05T09:21:45.430Z,43.40
2022-12-05T09:24:13.653Z,44.20
2022-12-05T09:26:41.172Z,37.97
2022-12-05T09:29:14.121Z,39.22
2022-12-05T09:31:43.167Z,39.20
2022-12-05T09:34:10.434Z,37.70
2022-12-05T09:36:36.972Z,49.95
2022-12-05T09:39:06.411Z,51.53
2022-12-05T09:41:54.228Z,36.17
2022-12-05T09:44:26.498Z,44.65
2022-12-05T09:47:11.815Z,37.60
2022-12-05T09:49:46.877Z,50.50
2022-12-05T09:52:25.546Z,48.67
2022-12-05T09:54:53.542Z,37.08
2022-12-05T09:57:34.051Z,40.55
2022-12-05T10:00:03.702Z,41.17
2022-12-05T10:02:35.697Z,39.42
2022-12-05T10:08:06.832Z,49.55
2022-12-05T10:10:53.583Z,59.83
2022-12-05T10:13:50.661Z,49.00
2022-12-05T10:16:27.091Z,48.70
2022-12-05T10:19:03.119Z,58.28
2022-12-05T10:21:36.346Z,42.63
2022-12-05T10:24:06.770Z,59.72
2022-12-05T10:26:39.974Z,50.67
2022-12-05T10:29:22.908Z,52.80
2022-12-05T10:31:51.570Z,52.63
2022-12-05T10:34:29.676Z,40.63
2022-12-05T10:37:10.136Z,54.50
2022-12-05T10:39:37.969Z,48.55
2022-12-05T10:42:06.663Z,86.95
2022-12-05T10:44:34.127Z,55.50
2022-12-05T10:47:01.743Z,84.72
2022-12-05T10:49:29.752Z,52.83
2022-12-05T10:51:56.388Z,59.22
2022-12-05T10:54:30.405Z,62.65
2022-12-05T10:56:57.304Z,62.30
2022-12-05T10:59:26.735Z,60.88
2022-12-05T11:01:55.195Z,65.32
2022-12-05T11:04:30.304Z,61.53
2022-12-05T11:06:58.702Z,66.40
2022-12-05T11:09:29.100Z,56.72
2022-12-05T11:12:20.376Z,66.60
2022-12-05T11:15:01.270Z,60.83
2022-12-05T11:17:33.044Z,48.83
2022-12-05T11:19:59.964Z,52.75
2022-12-05T11:22:32.214Z,61.50
2022-12-05T11:24:59.068Z,61.22
2022-12-05T11:27:32.591Z,47.80
2022-12-05T11:29:59.090Z,50.53
2022-12-05T11:32:29.028Z,50.00
2022-12-05T11:35:18.294Z,47.53
2022-12-05T11:38:03.754Z,57.22
2022-12-05T11:40:42.884Z,70.80
2022-12-05T11:43:12.457Z,129.07
2022-12-05T11:46:20.074Z,51.38
2022-12-05T11:48:59.584Z,52.15
2022-12-05T11:51:35.132Z,77.75
2022-12-05T11:54:04.666Z,83.95
2022-12-05T11:57:10.504Z,55.03
2022-12-05T12:00:03.172Z,77.00
2022-12-05T12:02:54.185Z,56.42
2022-12-05T12:06:11.697Z,50.25
2022-12-05T12:09:09.107Z,56.83
2022-12-05T12:11:59.649Z,49.58
2022-12-05T12:14:34.895Z,49.17
2022-12-05T12:17:10.556Z,38.17
2022-12-05T12:20:00.215Z,34.03
2022-12-05T12:22:29.487Z,25.45
2022-12-05T12:25:14.873Z,27.63
2022-12-05T12:27:48.966Z,24.02
2022-12-05T12:30:20.056Z,14.25
2022-12-05T12:33:09.344Z,9.30
2022-12-05T12:35:43.244Z,13.52
2022-12-05T12:38:18.801Z,9.85
2022-12-05T12:41:04.160Z,8.93
2022-12-05T12:44:08.419Z,8.80
2022-12-05T12:47:16.535Z,8.57
2022-12-05T12:50:04.806Z,6.68
2022-12-05T12:52:55.051Z,7.00
2022-12-05T12:55:43.275Z,6.65
2022-12-05T12:58:27.078Z,9.10
2022-12-05T13:01:08.865Z,9.00
2022-12-05T13:03:53.880Z,9.60
2022-12-05T13:06:39.518Z,8.52
2022-12-05T13:09:37.170Z,11.98
2022-12-05T13:12:27.364Z,11.05
2022-12-05T13:15:04.022Z,9.23
2022-12-05T13:17:33.366Z,9.73
2022-12-05T13:20:00.725Z,9.30
2022-12-05T13:22:28.707Z,12.27
2022-12-05T13:24:55.957Z,12.60
2022-12-05T13:27:27.508Z,12.00
2022-12-05T13:30:00.784Z,16.00
2022-12-05T13:32:36.263Z,13.98
2022-12-05T13:35:10.870Z,17.30
2022-12-05T13:38:04.306Z,12.95
2022-12-05T13:40:56.017Z,15.25
2022-12-05T13:43:26.546Z,12.40
2022-12-05T13:46:22.305Z,9.63
2022-12-05T13:48:49.929Z,9.95
2022-12-05T13:51:30.491Z,10.23
2022-12-05T13:54:06.604Z,7.95
2022-12-05T13:56:55.326Z,10.85
2022-12-05T14:00:00.366Z,9.30
2022-12-05T14:02:42.501Z,8.27
2022-12-05T14:05:21.649Z,10.48
2022-12-05T14:07:53.495Z,11.02
2022-12-05T14:10:42.755Z,12.73
2022-12-05T14:13:15.366Z,11.23
2022-12-05T14:15:45.640Z,10.63
2022-12-05T14:18:31.101Z,11.27
2022-12-05T14:21:37.029Z,12.80
2022-12-05T14:24:10.659Z,14.63
2022-12-05T14:27:10.539Z,11.43
2022-12-05T14:29:46.276Z,10.88
2022-12-05T14:32:31.100Z,12.63
2022-12-05T14:35:02.096Z,12.00
2022-12-05T14:37:33.513Z,10.20
2022-12-05T14:40:02.500Z,8.07
2022-12-05T14:42:53.090Z,9.50
2022-12-05T14:45:42.283Z,7.28
2022-12-05T14:48:14.740Z,6.53
2022-12-05T14:50:41.364Z,10.82
2022-12-05T14:53:31.950Z,6.15
2022-12-05T14:56:14.065Z,6.70
2022-12-05T15:01:28.911Z,7.57
2022-12-05T15:04:18.723Z,7.60
2022-12-05T15:06:50.092Z,6.03
2022-12-05T15:09:46.938Z,7.85
2022-12-05T15:12:15.852Z,6.28
2022-12-05T15:14:57.401Z,6.28
2022-12-05T15:17:30.472Z,6.63
2022-12-05T15:20:05.819Z,5.28
2022-12-05T15:22:37.643Z,7.93
2022-12-05T15:25:30.814Z,8.38
2022-12-05T15:28:06.863Z,7.10
2022-12-05T15:30:39.720Z,7.22
2022-12-05T15:33:12.754Z,6.97
2022-12-05T15:35:41.197Z,4.82
2022-12-05T15:38:23.929Z,6.53
2022-12-05T15:40:53.691Z,7.55
2022-12-05T15:43:32.200Z,6.57
2022-12-05T15:46:24.524Z,7.35
2022-12-05T15:48:52.917Z,8.50
2022-12-05T15:51:22.209Z,9.05
2022-12-05T15:53:56.286Z,7.30
2022-12-05T15:56:48.859Z,7.88
2022-12-05T15:59:19.307Z,8.00
2022-12-05T16:01:52.513Z,6.53
2022-12-05T16:04:29.611Z,8.15
2022-12-05T16:06:58.166Z,6.03
2022-12-05T16:09:28.826Z,7.45
2022-12-05T16:11:56.711Z,10.40
2022-12-05T16:17:15.877Z,5.50
2022-12-05T16:19:43.494Z,5.75
2022-12-05T16:22:13.033Z,5.93
2022-12-05T16:24:50.564Z,6.90
2022-12-05T16:27:28.044Z,6.43
2022-12-05T16:30:18.041Z,6.30
2022-12-05T16:32:45.999Z,9.82
2022-12-05T16:35:37.251Z,7.03
2022-12-05T16:38:05.518Z,9.65
2022-12-05T16:40:32.631Z,8.75
2022-12-05T16:43:16.065Z,8.75
2022-12-05T16:45:45.219Z,9.90
2022-12-05T16:48:24.779Z,11.55
2022-12-05T16:50:53.772Z,9.23
2022-12-05T16:53:27.397Z,8.82
2022-12-05T16:55:54.409Z,7.88
2022-12-05T16:58:24.755Z,10.88
2022-12-05T17:00:52.166Z,9.18
2022-12-05T17:03:34.053Z,10.23
2022-12-05T17:06:01.291Z,11.68
2022-12-05T17:08:27.941Z,10.63
2022-12-05T17:10:54.721Z,12.68
2022-12-05T17:13:21.468Z,11.23
2022-12-05T17:15:48.062Z,9.60
2022-12-05T17:18:27.955Z,10.77
2022-12-05T17:21:00.862Z,12.90
2022-12-05T17:23:27.471Z,12.98
2022-12-05T17:25:56.729Z,11.90
2022-12-05T17:28:23.749Z,11.55
2022-12-05T17:30:50.812Z,10.60
2022-12-05T17:33:19.197Z,12.55
2022-12-05T17:35:46.924Z,12.20
2022-12-05T17:38:14.302Z,11.30
2022-12-05T17:40:41.555Z,10.40
2022-12-05T17:43:12.714Z,15.40
2022-12-05T17:45:39.304Z,13.45
2022-12-05T17:48:06.086Z,13.60
2022-12-05T17:50:33.106Z,15.05
2022-12-05T17:53:04.208Z,13.52
2022-12-05T17:55:33.666Z,14.48
2022-12-05T17:58:00.223Z,16.02
2022-12-05T18:00:26.988Z,17.85
2022-12-05T18:02:53.799Z,16.42
2022-12-05T18:05:20.987Z,17.40
2022-12-05T18:07:48.233Z,16.42
2022-12-05T18:10:19.176Z,15.25
2022-12-05T18:12:47.324Z,15.32
2022-12-05T18:15:15.055Z,17.23
2022-12-05T18:17:41.923Z,16.70
2022-12-05T18:20:10.297Z,19.17
2022-12-05T18:22:36.891Z,16.55
2022-12-05T18:25:04.350Z,17.90
2022-12-05T18:27:31.519Z,17.00
2022-12-05T18:29:58.377Z,19.33
2022-12-05T18:32:25.487Z,15.73
2022-12-05T18:34:52.429Z,18.85
2022-12-05T18:37:19.018Z,15.88
2022-12-05T18:39:46.134Z,17.02
2022-12-05T18:42:15.354Z,15.13
2022-12-05T18:44:42.317Z,15.27
2022-12-05T18:47:09.139Z,15.20
2022-12-05T18:49:35.787Z,11.20
2022-12-05T18:52:02.302Z,13.55
2022-12-05T18:54:28.854Z,14.57
2022-12-05T18:56:55.404Z,13.00
2022-12-05T18:59:22.497Z,12.55
2022-12-05T19:01:50.572Z,13.77
2022-12-05T19:04:19.655Z,13.93
2022-12-05T19:07:08.424Z,15.43
2022-12-05T19:09:35.905Z,12.95
2022-12-05T19:12:03.321Z,12.70
2022-12-05T19:14:32.967Z,13.32
2022-12-05T19:17:00.526Z,11.32
2022-12-05T19:19:28.271Z,14.30
2022-12-05T19:21:55.474Z,13.20
2022-12-05T19:24:22.104Z,13.65
2022-12-05T19:26:48.689Z,14.85
2022-12-05T19:29:16.485Z,15.68
2022-12-05T19:31:44.048Z,15.18
2022-12-05T19:34:11.580Z,14.68
2022-12-05T19:36:41.261Z,14.57
2022-12-05T19:39:09.343Z,14.40
2022-12-05T19:41:36.397Z,17.30
2022-12-05T19:44:03.561Z,16.55
2022-12-05T19:46:31.325Z,17.05
2022-12-05T19:48:59.910Z,15.25
2022-12-05T19:51:26.998Z,19.60
2022-12-05T19:53:53.655Z,15.75
2022-12-05T19:56:22.650Z,17.45
2022-12-05T19:58:50.755Z,16.38
2022-12-05T20:01:18.882Z,15.95
2022-12-05T20:03:51.875Z,15.65
2022-12-05T20:06:19.294Z,15.65
2022-12-05T20:08:47.355Z,22.05
2022-12-05T20:11:24.833Z,17.25
2022-12-05T20:13:52.749Z,17.50
2022-12-05T20:16:22.033Z,17.38
2022-12-05T20:18:50.277Z,17.33
2022-12-05T20:21:24.555Z,17.10
2022-12-05T20:23:53.085Z,15.80
2022-12-05T20:26:22.617Z,17.45
2022-12-05T20:28:49.744Z,16.90
2022-12-05T20:31:24.152Z,22.88
2022-12-05T20:33:52.884Z,16.20
2022-12-05T20:36:22.011Z,18.60
2022-12-05T20:38:49.017Z,17.50
2022-12-05T20:41:18.464Z,17.48
2022-12-05T20:43:46.455Z,17.05
2022-12-05T20:46:17.352Z,16.02
2022-12-05T20:48:45.006Z,14.63
2022-12-05T20:51:14.190Z,16.65
2022-12-05T20:53:42.674Z,15.32
2022-12-05T20:56:32.447Z,14.73
2022-12-05T20:59:01.682Z,15.82
2022-12-05T21:01:30.462Z,15.27
2022-12-05T21:03:57.498Z,16.98
2022-12-05T21:06:28.917Z,17.45
2022-12-05T21:08:56.656Z,20.20
2022-12-05T21:11:24.580Z,15.27
2022-12-05T21:13:51.451Z,17.67
2022-12-05T21:16:20.218Z,16.95
2022-12-05T21:18:47.138Z,14.93
2022-12-05T21:21:16.835Z,17.80
2022-12-05T21:23:45.368Z,16.98
2022-12-05T21:26:15.535Z,16.95
2022-12-05T21:28:43.911Z,17.33
2022-12-05T21:31:24.685Z,17.05
2022-12-05T21:33:54.138Z,18.88
2022-12-05T21:36:21.448Z,24.50
2022-12-05T21:38:54.005Z,18.95
2022-12-05T21:41:22.514Z,18.67
2022-12-05T21:43:54.039Z,19.20
2022-12-05T21:46:22.011Z,19.98
2022-12-05T21:48:48.699Z,16.98
2022-12-05T21:51:15.456Z,16.45
2022-12-05T21:53:42.148Z,16.45
2022-12-05T21:56:11.948Z,16.73
2022-12-05T21:58:42.418Z,14.77
2022-12-05T22:01:17.402Z,17.15
2022-12-05T22:03:44.631Z,15.55
2022-12-05T22:06:12.913Z,18.20
2022-12-05T22:08:39.710Z,14.75
2022-12-05T22:11:20.381Z,17.90
2022-12-05T22:13:48.964Z,18.95
2022-12-05T22:16:16.953Z,17.08
2022-12-05T22:18:43.752Z,18.70
2022-12-05T22:21:16.318Z,19.20
2022-12-05T22:23:42.908Z,16.40
2022-12-05T22:26:12.252Z,15.85
2022-12-05T22:28:39.780Z,16.65
2022-12-05T22:31:08.857Z,16.20
2022-12-05T22:33:36.747Z,15.73
2022-12-05T22:36:05.693Z,14.43
2022-12-05T22:38:35.019Z,13.52
2022-12-05T22:41:21.907Z,15.65
2022-12-05T22:43:49.727Z,14.32
2022-12-05T22:46:18.942Z,15.88
2022-12-05T22:48:47.673Z,14.50
2022-12-05T22:51:15.850Z,14.85
2022-12-05T22:53:42.765Z,14.45
2022-12-05T22:56:12.118Z,17.10
2022-12-05T22:58:39.446Z,16.63
2022-12-05T23:01:23.441Z,14.18
2022-12-05T23:03:54.952Z,14.27
2022-12-05T23:06:21.619Z,13.35
2022-12-05T23:08:48.893Z,13.23
2022-12-05T23:11:16.622Z,15.05
2022-12-05T23:13:43.697Z,14.25
2022-12-05T23:16:14.124Z,13.55
2022-12-05T23:18:47.122Z,14.60
2022-12-05T23:21:22.766Z,12.05
2022-12-05T23:23:51.428Z,11.70
2022-12-05T23:26:19.252Z,14.65
2022-12-05T23:28:46.096Z,12.40
2022-12-05T23:31:13.584Z,12.52
2022-12-05T23:33:40.370Z,13.43
2022-12-05T23:36:08.131Z,13.18
2022-12-05T23:38:35.803Z,12.82
2022-12-05T23:41:08.783Z,15.70
2022-12-05T23:43:36.739Z,13.60
2022-12-05T23:46:05.522Z,14.95
2022-12-05T23:48:32.556Z,14.65
2022-12-05T23:51:02.073Z,15.00
2022-12-05T23:53:30.991Z,16.33
2022-12-05T23:56:08.373Z,14.60
2022-12-05T23:58:35.724Z,16.75
